Latest Weather Observations for Devonport Airport

IDT60801

Issued at 3:31 pm EST Sunday 30 August 2015 (issued every 30 minutes, with the page automatically refreshed every 10 minutes)

About weather observations | Map of weather stations | Latest weather observations for TAS | Other Formats
Station Details ID: 091126 Name: DEVONPORT AIRPORT Lat: -41.17 Lon: 146.43 Height: 8.0 m
Data from the previous 72 hours. | See also: Recent months at Devonport Airport
Date/Time
EST
Temp
°C
App
Temp
°C
Dew
Point
Rel
Hum
%
Delta-T
°C
Wind Press
QNH
hPa
Press
MSL
hPa
Rain
since 9 am
mm
Dir
 
Spd
km/h
Gust
km/h
Spd
kts
Gust
kts
30/03:30pm 10.8 4.6 4.5 65 2.8 WNW 26 30 14 16 1022.0 1022.0 0.0
30/03:00pm 11.0 4.4 2.3 55 3.7 WNW 26 32 14 17 1022.0 1022.0 0.0
30/02:30pm 11.3 5.4 4.1 61 3.2 WNW 24 28 13 15 1022.2 1022.2 0.0
30/02:00pm 11.2 6.1 4.2 62 3.1 WNW 20 24 11 13 1022.1 1022.1 0.0
30/01:30pm 11.3 6.0 3.1 57 3.6 WNW 20 24 11 13 1022.3 1022.3 0.0
30/01:00pm 11.2 6.2 3.7 60 3.3 WNW 19 20 10 11 1022.7 1022.7 0.0
30/12:30pm 11.2 6.5 3.0 57 3.6 NW 17 24 9 13 1023.0 1023.0 0.0
30/12:00pm 10.4 6.6 1.8 55 3.6 WSW 11 15 6 8 1023.7 1023.7 0.0
30/11:30am 11.4 6.1 1.6 51 4.1 SE 19 24 10 13 1024.1 1024.1 0.0
30/11:00am 10.7 6.1 1.3 52 3.9 SSE 15 20 8 11 1024.4 1024.4 0.0
30/10:30am 10.2 5.9 1.1 53 3.8 SSE 13 17 7 9 1024.7 1024.7 0.0
30/10:00am 10.0 5.4 1.4 55 3.5 SSE 15 20 8 11 1024.8 1024.8 0.0
30/09:30am 8.0 5.0 1.0 61 2.8 SSW 6 9 3 5 1024.8 1024.8 0.0
30/09:00am 6.4 2.8 0.9 68 2.2 SSW 9 11 5 6 1024.8 1024.8 0.0
30/08:30am 5.1 1.1 0.5 72 1.8 SSW 11 13 6 7 1024.9 1024.9 0.0
30/08:00am 3.5 -0.9 0.2 79 1.2 SSW 13 15 7 8 1025.0 1025.0 0.0
30/07:30am 2.6 -1.1 -0.3 81 1.1 SW 9 13 5 7 1024.9 1024.9 0.0
30/07:00am 0.9 -2.9 -1.0 87 0.7 SW 9 13 5 7 1024.5 1024.5 0.0
30/06:30am 0.2 -3.4 -2.0 85 0.8 WSW 7 11 4 6 1024.3 1024.3 0.0
30/06:00am 1.7 -1.6 -1.5 79 1.1 SSW 6 9 3 5 1023.9 1023.9 0.0
30/05:30am 3.9 -1.7 -0.1 75 1.5 SE 19 24 10 13 1023.7 1023.7 0.0
30/05:00am 1.5 -3.1 -1.4 81 1.0 S 13 15 7 8 1023.5 1023.5 0.0
30/04:30am 2.3 -2.3 -1.0 79 1.2 SE 13 17 7 9 1023.4 1023.4 0.0
30/04:00am 2.3 -2.6 -0.6 81 1.0 SE 15 19 8 10 1023.1 1023.1 0.0
30/03:30am 2.6 -1.5 -0.3 81 1.1 SSW 11 13 6 7 1023.1 1023.1 0.0
30/03:00am 1.8 -2.0 -0.8 83 0.9 SSE 9 11 5 6 1023.3 1023.3 0.0
30/02:30am 2.8 -0.9 0.2 83 1.0 SSW 9 15 5 8 1023.7 1023.7 0.0
30/02:00am 3.6 -1.5 0.7 81 1.1 SSE 17 20 9 11 1024.0 1024.0 0.0
30/01:30am 3.2 -1.1 0.8 84 0.9 SSE 13 15 7 8 1024.2 1024.2 0.0
30/01:00am 4.0 -1.0 1.4 83 1.0 SSE 17 20 9 11 1024.2 1024.2 0.0
30/12:30am 3.3 -0.3 0.9 84 0.9 S 9 17 5 9 1024.5 1024.5 0.0
30/12:00am 4.6 0.8 1.5 80 1.2 SSE 11 13 6 7 1024.5 1024.5 0.0
 
Date/Time
EST
Temp
°C
App
Temp
°C
Dew
Point
Rel
Hum
%
Delta-T
°C
Wind Press
QNH
hPa
Press
MSL
hPa
Rain
since 9 am
mm
Dir
 
Spd
km/h
Gust
km/h
Spd
kts
Gust
kts
29/11:30pm 3.6 -0.3 1.0 83 1.0 SSE 11 13 6 7 1024.6 1024.6 0.0
29/11:00pm 3.8 0.3 1.2 83 1.0 SSE 9 13 5 7 1024.8 1024.8 0.0
29/10:30pm 4.9 1.9 1.7 80 1.3 S 7 11 4 6 1024.8 1024.8 0.0
29/10:00pm 4.9 1.9 1.9 81 1.2 SSE 7 11 4 6 1024.7 1024.7 0.0
29/09:30pm 5.7 4.0 1.8 76 1.6 CALM 0 6 0 3 1024.4 1024.4 0.0
29/09:00pm 6.4 3.0 1.7 72 1.9 SE 9 11 5 6 1024.1 1024.1 0.0
29/08:30pm 6.6 2.8 1.9 72 1.9 ESE 11 15 6 8 1023.9 1023.9 0.0
29/08:00pm 9.4 6.3 1.3 57 3.3 S 7 11 4 6 1023.4 1023.4 0.0
29/07:30pm 9.3 7.2 1.5 58 3.2 NNE 2 9 1 5 1023.0 1023.0 0.0
29/07:00pm 8.9 4.8 2.0 62 2.9 S 13 19 7 10 1022.5 1022.5 0.0
29/06:30pm 10.2 4.4 2.1 57 3.4 SSE 22 26 12 14 1022.0 1022.0 0.0
29/06:00pm 10.1 5.3 2.7 60 3.2 SE 17 20 9 11 1021.8 1021.8 0.0
29/05:30pm 11.8 7.3 2.0 51 4.2 SSE 15 20 8 11 1021.4 1021.4 0.0
29/05:00pm 11.7 7.4 3.0 55 3.8 SSE 15 19 8 10 1021.1 1021.1 0.0
29/04:30pm 13.0 8.6 2.5 49 4.6 S 15 24 8 13 1020.8 1020.8 0.0
29/04:00pm 13.3 9.1 3.7 52 4.3 S 15 22 8 12 1020.6 1020.6 0.0
29/03:30pm 13.8 9.6 3.6 50 4.6 S 15 22 8 12 1020.4 1020.4 0.0
29/03:00pm 13.8 9.3 4.1 52 4.4 S 17 24 9 13 1020.0 1020.0 0.0
29/02:30pm 13.5 8.9 3.6 51 4.5 SSE 17 22 9 12 1019.7 1019.7 0.0
29/02:00pm 13.4 9.5 3.5 51 4.4 SSE 13 17 7 9 1020.1 1020.1 0.0
29/01:30pm 13.2 8.9 3.0 50 4.5 S 15 24 8 13 1020.2 1020.2 0.0
29/01:00pm 13.5 7.0 2.7 48 4.8 S 26 35 14 19 1019.9 1019.9 0.0
29/12:30pm 13.5 7.1 3.0 49 4.7 SSW 26 41 14 22 1020.0 1020.0 0.0
29/12:00pm 13.2 6.7 2.4 48 4.7 SSW 26 39 14 21 1020.3 1020.3 0.0
29/11:30am 13.6 5.9 2.2 46 5.0 S 32 46 17 25 1020.3 1020.3 0.0
29/11:00am 13.4 8.2 3.8 52 4.3 SSW 20 30 11 16 1020.5 1020.5 0.0
29/10:30am 13.1 8.2 4.3 55 4.0 SSW 19 30 10 16 1020.3 1020.3 0.0
29/10:00am 10.9 7.9 4.1 63 3.0 SSW 9 20 5 11 1020.5 1020.5 0.0
29/09:30am 8.2 5.6 4.2 76 1.7 SSE 7 13 4 7 1020.6 1020.6 0.0
29/09:00am 7.1 4.6 3.7 79 1.4 W 6 7 3 4 1020.4 1020.4 0.0
29/08:30am 6.8 4.7 3.8 81 1.3 S 4 7 2 4 1020.2 1020.2 0.0
29/08:00am 4.8 2.1 2.5 85 0.9 ESE 6 9 3 5 1020.3 1020.3 0.0
29/07:30am 4.1 1.1 1.8 85 0.9 SE 7 9 4 5 1020.1 1020.1 0.0
29/07:00am 4.8 1.3 1.5 79 1.3 SW 9 11 5 6 1019.7 1019.7 0.0
29/06:30am 4.1 0.6 1.3 82 1.1 SSW 9 11 5 6 1019.5 1019.5 0.0
29/06:00am 4.5 0.3 1.5 81 1.2 SE 13 17 7 9 1019.1 1019.1 0.0
29/05:30am 4.1 0.2 1.1 81 1.2 SSE 11 13 6 7 1018.7 1018.7 0.0
29/05:00am 4.5 0.9 0.6 76 1.5 S 9 11 5 6 1018.4 1018.4 0.0
29/04:30am 5.6 2.4 1.0 72 1.8 W 7 11 4 6 1018.2 1018.2 0.0
29/04:00am 4.8 -0.1 -0.2 70 1.9 W 15 19 8 10 1018.2 1018.2 0.0
29/03:30am 6.7 2.4 1.0 67 2.3 W 13 17 7 9 1018.8 1018.8 0.0
29/03:00am 7.1 0.8 1.6 68 2.2 WNW 24 30 13 16 1018.9 1018.9 0.0
29/02:30am 6.5 0.2 1.6 71 2.0 W 24 32 13 17 1019.7 1019.7 0.0
29/02:00am 6.5 0.1 0.8 67 2.2 WNW 24 32 13 17 1020.5 1020.5 0.0
29/01:30am 4.3 1.1 -0.5 71 1.8 WSW 6 13 3 7 1021.2 1021.2 0.0
29/01:00am 3.8 1.2 -2.0 66 2.1 NE 2 7 1 4 1022.1 1022.1 0.0
29/12:30am 4.9 -1.2 -2.0 61 2.5 WSW 20 28 11 15 1022.3 1022.3 0.0
29/12:00am 3.4 -2.2 -2.7 64 2.1 WSW 17 19 9 10 1022.9 1022.9 0.0
 
Date/Time
EST
Temp
°C
App
Temp
°C
Dew
Point
Rel
Hum
%
Delta-T
°C
Wind Press
QNH
hPa
Press
MSL
hPa
Rain
since 9 am
mm
Dir
 
Spd
km/h
Gust
km/h
Spd
kts
Gust
kts
28/11:30pm 4.1 -1.5 -2.7 61 2.4 WSW 17 22 9 12 1023.2 1023.2 0.0
28/11:00pm 4.4 -1.1 -2.2 62 2.3 WSW 17 22 9 12 1023.7 1023.7 0.0
28/10:30pm 2.7 -0.8 -2.6 68 1.8 ENE 6 15 3 8 1024.4 1024.4 0.0
28/10:00pm 3.4 -2.2 -2.7 64 2.1 W 17 22 9 12 1024.9 1024.9 0.0
28/09:30pm 3.5 -1.7 -3.1 62 2.3 WSW 15 19 8 10 1025.0 1025.0 0.0
28/09:00pm 4.1 -2.1 -3.0 60 2.5 WSW 20 22 11 12 1025.2 1025.2 0.0
28/08:30pm 7.0 1.5 -5.7 40 4.3 SW 15 20 8 11 1025.4 1025.4 0.0
28/08:00pm 7.0 1.1 -5.7 40 4.3 SSW 17 24 9 13 1025.2 1025.2 0.0
28/07:30pm 5.7 0.8 -3.1 53 3.1 SSW 13 22 7 12 1025.2 1025.2 0.0
28/07:00pm 6.3 0.8 -2.1 55 3.1 SSW 17 20 9 11 1024.9 1024.9 0.0
28/06:30pm 6.5 1.5 -1.2 58 2.9 S 15 20 8 11 1024.7 1024.7 0.0
28/06:00pm 7.3 2.2 0.5 62 2.7 S 17 20 9 11 1024.5 1024.5 0.0
28/05:30pm 8.1 4.2 1.0 61 2.9 S 11 15 6 8 1024.1 1024.1 0.0
28/05:00pm 9.0 3.9 0.7 56 3.3 SSE 17 22 9 12 1023.8 1023.8 0.0
28/04:30pm 10.3 4.4 -1.1 45 4.5 SSE 20 26 11 14 1023.7 1023.7 0.0
28/04:00pm 11.1 5.2 -1.0 43 4.8 SSE 20 26 11 14 1023.7 1023.7 0.0
28/03:30pm 11.2 5.3 -2.6 38 5.3 SSE 19 28 10 15 1023.7 1023.7 0.0
28/03:00pm 12.2 6.6 0.0 43 5.0 S 19 28 10 15 1023.8 1023.8 0.0
28/02:30pm 11.4 4.2 -2.0 39 5.2 S 26 37 14 20 1023.8 1023.8 0.0
28/02:00pm 11.6 4.7 -2.6 37 5.4 S 24 33 13 18 1024.0 1024.0 0.0
28/01:30pm 11.4 4.5 -2.4 38 5.3 S 24 39 13 21 1024.1 1024.1 0.0
28/01:00pm 11.4 3.2 -1.0 42 4.9 SSE 32 44 17 24 1024.3 1024.3 0.0
28/12:30pm 10.8 1.8 -2.6 39 5.1 S 35 50 19 27 1024.7 1024.7 0.0
28/12:26pm 10.9 2.5 -2.5 39 5.1 S 32 50 17 27 1024.6 1024.6 0.0
28/12:00pm 10.6 2.2 -2.8 39 5.0 S 32 46 17 25 1025.1 1025.1 0.0
28/11:52am 10.8 3.2 -1.9 41 4.9 SSE 28 46 15 25 1025.1 1025.1 0.0
28/11:30am 11.1 4.6 0.2 47 4.4 S 24 32 13 17 1025.5 1025.5 0.0
28/11:00am 10.3 2.8 -1.1 45 4.4 S 28 39 15 21 1025.7 1025.7 0.0
28/10:30am 10.1 1.8 -0.4 48 4.2 SSE 33 46 18 25 1025.6 1025.6 0.0
28/10:00am 9.7 3.2 0.3 52 3.8 SE 24 37 13 20 1025.6 1025.6 0.0
28/09:30am 9.1 3.0 2.9 65 2.6 SE 24 32 13 17 1025.5 1025.5 0.0
28/09:00am 8.5 3.0 3.9 73 2.0 SE 22 30 12 16 1025.4 1025.4 0.0
28/08:30am 7.7 2.8 3.9 77 1.6 SSE 19 24 10 13 1025.1 1025.1 0.0
28/08:00am 6.9 2.7 3.9 81 1.3 S 15 20 8 11 1024.8 1024.8 0.0
28/07:30am 5.9 1.2 3.1 82 1.2 SSE 17 22 9 12 1024.3 1024.3 0.0
28/07:00am 5.3 0.5 2.7 83 1.1 SSE 17 20 9 11 1023.9 1023.9 0.0
28/06:30am 3.4 -1.2 1.4 87 0.8 S 15 19 8 10 1023.7 1023.7 0.0
28/06:00am 4.0 -0.9 1.9 86 0.8 SSE 17 20 9 11 1023.4 1023.4 0.0
28/05:30am 3.8 1.0 2.3 90 0.6 S 6 11 3 6 1023.1 1023.1 0.0
28/05:00am 3.9 0.2 2.4 90 0.6 SSE 11 13 6 7 1022.6 1022.6 0.0
28/04:30am 3.5 -0.3 2.0 90 0.6 SSW 11 15 6 8 1022.4 1022.4 0.0
28/04:00am 5.0 0.5 2.2 82 1.1 SSE 15 19 8 10 1022.1 1022.1 0.0
28/03:30am 4.1 -0.3 2.6 90 0.6 SSE 15 17 8 9 1022.0 1022.0 0.0
28/03:00am 4.7 0.8 3.2 90 0.6 SSE 13 15 7 8 1021.9 1021.9 0.0
28/02:30am 5.3 1.9 3.8 90 0.6 S 11 13 6 7 1022.0 1022.0 0.0
28/02:00am 5.7 2.3 4.2 90 0.6 SSE 11 11 6 6 1022.2 1022.2 0.0
28/01:30am 5.6 2.3 4.4 92 0.5 SSE 11 13 6 7 1022.4 1022.4 0.0
28/01:00am 5.7 2.7 4.0 89 0.7 SSW 9 11 5 6 1022.4 1022.4 0.0
28/12:30am 6.2 3.3 4.5 89 0.7 S 9 11 5 6 1022.2 1022.2 0.0
28/12:00am 7.6 4.5 5.7 88 0.8 SSE 11 13 6 7 1022.1 1022.1 0.0
 
Date/Time
EST
Temp
°C
App
Temp
°C
Dew
Point
Rel
Hum
%
Delta-T
°C
Wind Press
QNH
hPa
Press
MSL
hPa
Rain
since 9 am
mm
Dir
 
Spd
km/h
Gust
km/h
Spd
kts
Gust
kts
27/11:30pm 7.0 4.5 4.7 85 1.0 S 7 9 4 5 1022.3 1022.3 0.0
27/11:00pm 8.8 6.1 5.7 81 1.4 SSW 9 13 5 7 1022.2 1022.2 0.0
27/10:30pm 8.6 6.0 6.2 85 1.1 S 9 13 5 7 1022.0 1022.0 0.0
27/10:00pm 9.5 6.3 6.8 83 1.3 SSE 13 17 7 9 1022.0 1022.0 0.0
27/09:30pm 9.6 6.4 6.9 83 1.3 SSE 13 15 7 8 1022.1 1022.1 0.0
27/09:00pm 10.5 7.4 7.2 80 1.6 SSE 13 17 7 9 1022.0 1022.0 0.0
27/08:30pm 11.0 8.5 8.0 82 1.5 SSE 11 13 6 7 1021.8 1021.8 0.0
27/08:00pm 11.7 8.9 8.6 81 1.5 SSE 13 19 7 10 1021.5 1021.5 0.0
27/07:30pm 11.4 9.1 9.1 86 1.1 S 11 15 6 8 1021.1 1021.1 0.0
27/07:00pm 11.1 8.9 9.4 89 0.8 SSE 11 15 6 8 1020.8 1020.8 0.0
27/06:30pm 11.3 9.2 9.9 91 0.7 WNW 11 13 6 7 1020.6 1020.6 0.0
27/06:00pm 11.1 8.5 9.4 89 0.8 W 13 17 7 9 1020.3 1020.3 0.0
27/05:30pm 11.5 7.5 9.2 86 1.2 WNW 20 24 11 13 1020.0 1020.0 0.0
27/05:00pm 12.1 8.2 9.5 84 1.3 WNW 20 26 11 14 1019.7 1019.7 0.0
27/04:30pm 12.3 8.4 9.3 82 1.5 WNW 20 26 11 14 1019.8 1019.8 0.0
27/04:00pm 13.0 9.6 9.1 77 2.0 WNW 17 22 9 12 1019.7 1019.7 0.0

Other Formats:

Comma delimited format used in spreadsheet applications
http://www.bom.gov.au/fwo/IDT60801/IDT60801.95960.axf

JavaScript Object Notation format (JSON) in row-major order
http://www.bom.gov.au/fwo/IDT60801/IDT60801.95960.json